Terminal Aerodrome Forecast
Issued by NWS Louisville, KY

Home | Current Version | Previous Version | Text Only | Print | Product List | Glossary On
Versions: 1 2 3 4 5 6 7 8 9 10 11 12 13 14 15
000
FTUS43 KLMK 261100
TAFBWG
TAF
KBWG 261122Z 2612/2712 02007KT P6SM OVC008
     FM261500 01009KT P6SM BKN015
     FM261800 01008KT P6SM BKN025
     FM261900 01010KT P6SM SCT035
     FM270000 VRB04KT P6SM SKC=

USA.gov is the U.S. government's official web portal to all federal, state and local government web resources and services.